createdAt,value
2018-05-01T00:01:49.986Z,19.30
2018-05-01T00:04:19.825Z,19.72
2018-05-01T00:06:49.873Z,19.65
2018-05-01T00:09:20.801Z,19.68
2018-05-01T00:11:50.709Z,19.68
2018-05-01T00:14:20.514Z,19.67
2018-05-01T00:16:50.257Z,19.66
2018-05-01T00:19:20.690Z,19.66
2018-05-01T00:21:51.104Z,19.65
2018-05-01T00:24:21.617Z,19.63
2018-05-01T00:26:52.213Z,19.61
2018-05-01T00:29:22.712Z,19.61
2018-05-01T00:31:52.879Z,19.61
2018-05-01T00:34:23.168Z,19.50
2018-05-01T00:36:53.034Z,19.60
2018-05-01T00:39:23.908Z,19.58
2018-05-01T00:41:53.608Z,19.57
2018-05-01T00:44:23.507Z,19.56
2018-05-01T00:46:53.421Z,19.57
2018-05-01T00:49:23.147Z,19.53
2018-05-01T00:51:52.950Z,19.19
2018-05-01T00:54:22.666Z,19.53
2018-05-01T00:56:52.564Z,19.53
2018-05-01T00:59:22.049Z,19.53
2018-05-01T01:01:53.142Z,19.49
2018-05-01T01:04:23.452Z,19.49
2018-05-01T01:06:53.090Z,19.48
2018-05-01T01:09:23.466Z,19.47
2018-05-01T01:11:54.991Z,19.47
2018-05-01T01:14:25.558Z,19.44
2018-05-01T01:16:55.779Z,19.44
2018-05-01T01:19:25.658Z,19.33
2018-05-01T01:21:55.504Z,19.43
2018-05-01T01:24:27.153Z,19.32
2018-05-01T01:26:56.735Z,19.42
2018-05-01T01:29:26.437Z,19.41
2018-05-01T01:31:56.623Z,19.40
2018-05-01T01:34:27.256Z,19.39
2018-05-01T01:36:55.507Z,19.37
2018-05-01T01:39:23.831Z,19.35
2018-05-01T01:41:52.200Z,19.36
2018-05-01T01:44:19.958Z,19.34
2018-05-01T01:46:48.905Z,19.33
2018-05-01T01:49:16.986Z,19.33
2018-05-01T01:51:45.088Z,19.33
2018-05-01T01:54:13.587Z,19.33
2018-05-01T01:56:42.732Z,18.08
2018-05-01T01:59:11.550Z,19.32
2018-05-01T02:01:41.946Z,18.98
2018-05-01T02:04:11.266Z,19.30
2018-05-01T02:06:41.345Z,19.23
2018-05-01T02:09:09.729Z,19.31
2018-05-01T02:11:38.000Z,19.29
2018-05-01T02:14:06.590Z,19.28
2018-05-01T02:16:34.886Z,19.29
2018-05-01T02:19:04.107Z,19.29
2018-05-01T02:21:32.136Z,19.26
2018-05-01T02:23:59.995Z,19.27
2018-05-01T02:26:28.169Z,19.25
2018-05-01T02:28:56.138Z,19.26
2018-05-01T02:31:24.108Z,19.26
2018-05-01T02:33:51.954Z,19.25
2018-05-01T02:36:19.664Z,19.22
2018-05-01T02:38:47.464Z,19.21
2018-05-01T02:41:16.314Z,19.22
2018-05-01T02:43:45.785Z,19.21
2018-05-01T02:46:13.959Z,19.18
2018-05-01T02:48:43.822Z,19.19
2018-05-01T02:51:12.364Z,19.17
2018-05-01T02:53:43.029Z,19.17
2018-05-01T02:56:11.870Z,19.19
2018-05-01T02:58:42.199Z,19.09
2018-05-01T03:01:11.957Z,19.04
2018-05-01T03:03:43.363Z,19.16
2018-05-01T03:06:13.273Z,19.14
2018-05-01T03:08:43.678Z,19.12
2018-05-01T03:11:11.650Z,19.15
2018-05-01T03:13:41.699Z,19.06
2018-05-01T03:16:09.715Z,19.02
2018-05-01T03:18:37.972Z,19.02
2018-05-01T03:21:06.756Z,19.08
2018-05-01T03:23:34.586Z,18.75
2018-05-01T03:26:02.929Z,18.82
2018-05-01T03:28:31.835Z,18.95
2018-05-01T03:31:00.004Z,19.07
2018-05-01T03:33:28.121Z,19.07
2018-05-01T03:36:04.663Z,19.06
2018-05-01T03:38:32.754Z,19.07
2018-05-01T03:41:01.125Z,18.97
2018-05-01T03:43:29.275Z,19.02
2018-05-01T03:45:57.208Z,18.92
2018-05-01T03:48:25.319Z,19.01
2018-05-01T03:50:53.843Z,19.02
2018-05-01T03:53:22.056Z,19.01
2018-05-01T03:55:50.060Z,18.84
2018-05-01T03:58:18.590Z,18.74
2018-05-01T04:00:46.847Z,18.99
2018-05-01T04:03:14.731Z,18.56
2018-05-01T04:05:44.228Z,17.88
2018-05-01T04:08:12.753Z,18.98
2018-05-01T04:10:43.074Z,19.00
2018-05-01T04:13:10.860Z,19.00
2018-05-01T04:15:41.262Z,19.00
2018-05-01T04:18:09.196Z,18.96
2018-05-01T04:20:37.403Z,18.95
2018-05-01T04:23:06.273Z,18.81
2018-05-01T04:25:35.224Z,18.97
2018-05-01T04:28:03.851Z,18.94
2018-05-01T04:30:32.057Z,18.97
2018-05-01T04:33:00.538Z,18.90
2018-05-01T04:35:28.495Z,18.86
2018-05-01T04:37:56.503Z,18.96
2018-05-01T04:40:24.914Z,18.61
2018-05-01T04:42:52.721Z,18.93
2018-05-01T04:45:20.433Z,18.85
2018-05-01T04:47:48.749Z,18.71
2018-05-01T04:50:16.939Z,18.96
2018-05-01T04:52:45.630Z,18.92
2018-05-01T04:55:14.220Z,18.84
2018-05-01T04:57:44.590Z,18.42
2018-05-01T05:00:13.044Z,18.86
2018-05-01T05:02:44.329Z,18.60
2018-05-01T05:05:12.331Z,18.74
2018-05-01T05:07:42.998Z,18.91
2018-05-01T05:10:12.001Z,18.90
2018-05-01T05:12:42.652Z,18.92
2018-05-01T05:15:10.694Z,18.39
2018-05-01T05:17:38.440Z,18.89
2018-05-01T05:20:06.543Z,18.87
2018-05-01T05:22:35.047Z,18.81
2018-05-01T05:25:03.468Z,18.87
2018-05-01T05:27:31.380Z,18.87
2018-05-01T05:29:59.634Z,18.86
2018-05-01T05:32:27.633Z,18.86
2018-05-01T05:34:55.466Z,18.69
2018-05-01T05:37:23.333Z,18.83
2018-05-01T05:39:51.220Z,18.84
2018-05-01T05:42:19.245Z,18.67
2018-05-01T05:44:47.339Z,18.83
2018-05-01T05:47:15.683Z,18.44
2018-05-01T05:49:44.105Z,18.85
2018-05-01T05:52:12.112Z,18.51
2018-05-01T05:54:40.164Z,18.67
2018-05-01T05:57:08.155Z,18.73
2018-05-01T05:59:37.025Z,18.76
2018-05-01T06:02:07.025Z,18.72
2018-05-01T06:04:34.803Z,18.82
2018-05-01T06:07:02.884Z,18.80
2018-05-01T06:09:31.348Z,18.80
2018-05-01T06:11:59.565Z,18.81
2018-05-01T06:14:27.376Z,18.80
2018-05-01T06:16:56.214Z,18.82
2018-05-01T06:19:24.781Z,18.58
2018-05-01T06:21:53.427Z,18.73
2018-05-01T06:24:22.518Z,18.72
2018-05-01T06:26:52.274Z,18.85
2018-05-01T06:29:20.367Z,18.92
2018-05-01T06:31:49.371Z,18.95
2018-05-01T06:34:17.178Z,19.04
2018-05-01T06:36:45.352Z,19.11
2018-05-01T06:39:13.837Z,19.17
2018-05-01T06:41:42.905Z,18.80
2018-05-01T06:44:11.431Z,19.29
2018-05-01T06:46:42.821Z,19.34
2018-05-01T06:49:11.298Z,19.43
2018-05-01T06:51:41.213Z,19.47
2018-05-01T06:54:09.932Z,19.46
2018-05-01T06:56:37.963Z,19.42
2018-05-01T06:59:06.067Z,19.59
2018-05-01T07:01:34.112Z,19.47
2018-05-01T07:04:01.925Z,19.58
2018-05-01T07:06:30.611Z,19.73
2018-05-01T07:08:58.692Z,19.77
2018-05-01T07:11:26.853Z,19.80
2018-05-01T07:13:54.685Z,19.85
2018-05-01T07:16:23.027Z,19.88
2018-05-01T07:18:52.407Z,19.95
2018-05-01T07:21:20.417Z,19.97
2018-05-01T07:23:48.641Z,20.03
2018-05-01T07:26:17.270Z,19.93
2018-05-01T07:28:45.131Z,20.06
2018-05-01T07:31:13.568Z,20.10
2018-05-01T07:33:42.695Z,20.18
2018-05-01T07:36:11.147Z,20.14
2018-05-01T07:38:42.183Z,20.25
2018-05-01T07:41:10.102Z,20.33
2018-05-01T07:43:37.998Z,20.32
2018-05-01T07:46:07.180Z,20.41
2018-05-01T07:48:35.346Z,19.99
2018-05-01T07:51:03.976Z,20.46
2018-05-01T07:53:32.501Z,20.44
2018-05-01T07:56:00.548Z,20.54
2018-05-01T07:58:28.592Z,20.58
2018-05-01T08:00:56.668Z,20.61
2018-05-01T08:03:24.614Z,20.00
2018-05-01T08:05:52.553Z,18.83
2018-05-01T08:08:21.180Z,19.35
2018-05-01T08:10:49.202Z,18.60
2018-05-01T08:13:17.355Z,18.45
2018-05-01T08:15:45.163Z,18.78
2018-05-01T08:18:12.961Z,18.74
2018-05-01T08:20:41.332Z,18.55
2018-05-01T08:23:09.562Z,18.47
2018-05-01T08:25:37.763Z,18.92
2018-05-01T08:28:06.105Z,18.06
2018-05-01T08:30:34.016Z,18.59
2018-05-01T08:33:02.192Z,18.65
2018-05-01T08:35:30.371Z,18.46
2018-05-01T08:37:58.553Z,18.40
2018-05-01T08:40:26.375Z,18.60
2018-05-01T08:42:54.261Z,18.64
2018-05-01T08:45:22.165Z,18.26
2018-05-01T08:47:50.069Z,18.50
2018-05-01T08:50:18.128Z,18.40
2018-05-01T08:52:46.370Z,18.54
2018-05-01T08:55:16.324Z,18.35
2018-05-01T08:57:44.065Z,18.48
2018-05-01T09:00:12.515Z,18.51
2018-05-01T09:02:41.907Z,18.44
2018-05-01T09:05:10.114Z,18.75
2018-05-01T09:07:38.529Z,18.70
2018-05-01T09:10:06.533Z,18.55
2018-05-01T09:12:34.532Z,18.61
2018-05-01T09:15:02.982Z,18.63
2018-05-01T09:17:30.914Z,18.30
2018-05-01T09:19:58.787Z,18.63
2018-05-01T09:22:26.961Z,18.69
2018-05-01T09:24:54.820Z,18.75
2018-05-01T09:27:23.751Z,18.72
2018-05-01T09:29:52.802Z,18.91
2018-05-01T09:32:21.125Z,18.78
2018-05-01T09:34:48.996Z,18.27
2018-05-01T09:37:17.677Z,18.66
2018-05-01T09:39:46.313Z,18.83
2018-05-01T09:42:14.098Z,18.59
2018-05-01T09:44:42.899Z,17.98
2018-05-01T09:47:10.857Z,18.81
2018-05-01T09:49:41.545Z,18.54
2018-05-01T09:52:10.071Z,18.33
2018-05-01T09:54:41.510Z,18.51
2018-05-01T09:57:11.932Z,18.68
2018-05-01T09:59:44.333Z,18.73
2018-05-01T10:02:14.078Z,18.58
2018-05-01T10:04:45.885Z,18.67
2018-05-01T10:07:16.221Z,18.59
2018-05-01T10:09:45.835Z,17.75
2018-05-01T10:12:16.716Z,18.60
2018-05-01T10:14:46.633Z,18.35
2018-05-01T10:17:17.267Z,18.33
2018-05-01T10:19:46.786Z,18.26
2018-05-01T10:22:16.567Z,18.44
2018-05-01T10:24:47.336Z,18.73
2018-05-01T10:27:18.236Z,19.59
2018-05-01T10:29:48.005Z,19.34
2018-05-01T10:32:17.496Z,19.07
2018-05-01T10:34:46.901Z,18.94
2018-05-01T10:37:17.006Z,19.58
2018-05-01T10:39:46.476Z,19.62
2018-05-01T10:42:15.943Z,19.87
2018-05-01T10:44:45.740Z,19.94
2018-05-01T10:47:15.727Z,20.12
2018-05-01T10:49:45.274Z,20.00
2018-05-01T10:52:15.072Z,19.93
2018-05-01T10:54:44.659Z,19.77
2018-05-01T10:57:14.460Z,19.68
2018-05-01T10:59:44.468Z,19.61
2018-05-01T11:02:14.421Z,19.80
2018-05-01T11:04:44.667Z,19.41
2018-05-01T11:07:14.253Z,20.04
2018-05-01T11:09:44.231Z,19.67
2018-05-01T11:12:13.802Z,20.09
2018-05-01T11:14:45.447Z,19.75
2018-05-01T11:17:15.247Z,20.20
2018-05-01T11:19:45.283Z,20.20
2018-05-01T11:22:15.163Z,20.11
2018-05-01T11:24:44.733Z,20.06
2018-05-01T11:27:14.594Z,19.90
2018-05-01T11:29:44.460Z,20.15
2018-05-01T11:32:13.927Z,20.09
2018-05-01T11:34:44.618Z,19.78
2018-05-01T11:37:15.094Z,20.15
2018-05-01T11:39:46.078Z,20.05
2018-05-01T11:42:15.566Z,20.17
2018-05-01T11:44:45.571Z,20.18
2018-05-01T11:47:15.167Z,20.28
2018-05-01T11:49:44.710Z,20.19
2018-05-01T11:52:14.191Z,20.28
2018-05-01T11:54:44.473Z,20.31
2018-05-01T11:57:15.115Z,20.29
2018-05-01T11:59:46.007Z,20.14
2018-05-01T12:02:15.618Z,20.23
2018-05-01T12:04:45.121Z,20.25
2018-05-01T12:07:14.551Z,20.10
2018-05-01T12:09:44.635Z,20.21
2018-05-01T12:12:14.119Z,20.06
2018-05-01T12:14:43.881Z,20.24
2018-05-01T12:17:13.392Z,20.01
2018-05-01T12:19:44.583Z,19.70
2018-05-01T12:22:14.446Z,20.35
2018-05-01T12:24:44.911Z,19.98
2018-05-01T12:27:14.421Z,20.32
2018-05-01T12:29:44.513Z,20.31
2018-05-01T12:32:14.210Z,20.43
2018-05-01T12:34:45.252Z,19.93
2018-05-01T12:37:14.898Z,20.47
2018-05-01T12:39:44.779Z,20.50
2018-05-01T12:42:15.024Z,20.44
2018-05-01T12:44:45.526Z,20.46
2018-05-01T12:47:15.363Z,20.45
2018-05-01T12:49:45.880Z,20.42
2018-05-01T12:52:15.809Z,20.36
2018-05-01T12:54:45.916Z,20.23
2018-05-01T12:57:17.486Z,20.38
2018-05-01T12:59:47.386Z,20.30
2018-05-01T13:02:17.488Z,20.28
2018-05-01T13:04:47.092Z,20.36
2018-05-01T13:07:16.606Z,20.42
2018-05-01T13:09:46.769Z,20.34
2018-05-01T13:12:16.899Z,20.46
2018-05-01T13:14:46.635Z,20.47
2018-05-01T13:17:16.207Z,20.48
2018-05-01T13:19:46.032Z,20.43
2018-05-01T13:22:15.971Z,20.31
2018-05-01T13:24:45.855Z,20.51
2018-05-01T13:27:15.930Z,20.51
2018-05-01T13:29:46.612Z,20.53
2018-05-01T13:32:16.995Z,20.54
2018-05-01T13:34:46.497Z,20.40
2018-05-01T13:37:16.080Z,20.60
2018-05-01T13:39:45.718Z,20.55
2018-05-01T13:42:16.150Z,20.62
2018-05-01T13:44:45.593Z,20.63
2018-05-01T13:47:15.077Z,20.64
2018-05-01T13:49:46.847Z,20.64
2018-05-01T13:52:16.441Z,20.65
2018-05-01T13:54:46.059Z,20.60
2018-05-01T13:57:16.522Z,20.61
2018-05-01T13:59:46.153Z,20.61
2018-05-01T14:02:17.963Z,20.57
2018-05-01T14:04:48.837Z,20.64
2018-05-01T14:07:18.416Z,20.65
2018-05-01T14:09:48.543Z,20.60
2018-05-01T14:12:18.038Z,20.43
2018-05-01T14:14:47.497Z,20.68
2018-05-01T14:17:17.389Z,20.69
2018-05-01T14:19:47.396Z,20.63
2018-05-01T14:22:17.207Z,20.69
2018-05-01T14:24:46.918Z,20.70
2018-05-01T14:27:16.666Z,20.70
2018-05-01T14:29:46.640Z,20.66
2018-05-01T14:32:16.231Z,20.71
2018-05-01T14:34:45.858Z,20.60
2018-05-01T14:37:19.182Z,20.72
2018-05-01T14:39:49.381Z,20.68
2018-05-01T14:42:18.927Z,20.73
2018-05-01T14:44:48.360Z,20.74
2018-05-01T14:47:18.323Z,20.76
2018-05-01T14:49:48.028Z,20.78
2018-05-01T14:52:18.321Z,20.67
2018-05-01T14:54:48.434Z,20.81
2018-05-01T14:57:18.049Z,20.62
2018-05-01T14:59:48.528Z,20.75
2018-05-01T15:02:18.035Z,20.82
2018-05-01T15:04:48.086Z,20.83
2018-05-01T15:07:17.701Z,20.83
2018-05-01T15:09:47.605Z,20.84
2018-05-01T15:12:17.468Z,20.74
2018-05-01T15:14:47.136Z,20.88
2018-05-01T15:17:17.597Z,20.89
2018-05-01T15:19:48.332Z,20.77
2018-05-01T15:22:18.087Z,20.90
2018-05-01T15:24:50.675Z,20.92
2018-05-01T15:27:20.877Z,20.86
2018-05-01T15:29:52.515Z,20.94
2018-05-01T15:32:22.382Z,20.94
2018-05-01T15:34:51.999Z,20.95
2018-05-01T15:37:21.539Z,20.95
2018-05-01T15:39:51.504Z,20.78
2018-05-01T15:42:21.704Z,20.72
2018-05-01T15:44:51.191Z,20.97
2018-05-01T15:47:21.054Z,20.97
2018-05-01T15:49:50.544Z,20.97
2018-05-01T15:52:21.005Z,20.94
2018-05-01T15:54:52.178Z,20.97
2018-05-01T15:57:22.601Z,20.98
2018-05-01T15:59:52.123Z,21.01
2018-05-01T16:02:22.071Z,20.96
2018-05-01T16:04:51.564Z,21.05
2018-05-01T16:07:22.174Z,21.06
2018-05-01T16:09:52.280Z,21.07
2018-05-01T16:12:21.710Z,21.09
2018-05-01T16:14:51.334Z,21.11
2018-05-01T16:17:21.105Z,21.07
2018-05-01T16:19:50.592Z,21.02
2018-05-01T16:22:21.030Z,21.14
2018-05-01T16:24:50.876Z,21.16
2018-05-01T16:27:20.637Z,21.17
2018-05-01T16:29:50.165Z,21.16
2018-05-01T16:32:20.131Z,21.18
2018-05-01T16:34:50.949Z,21.19
2018-05-01T16:37:21.682Z,21.22
2018-05-01T16:39:52.269Z,21.23
2018-05-01T16:42:34.860Z,21.26
2018-05-01T16:45:14.015Z,21.29
2018-05-01T16:47:59.644Z,21.30
2018-05-01T16:50:30.747Z,21.31
2018-05-01T16:53:00.575Z,21.32
2018-05-01T16:55:31.012Z,21.33
2018-05-01T16:58:00.457Z,21.32
2018-05-01T17:00:30.903Z,21.26
2018-05-01T17:03:00.324Z,21.33
2018-05-01T17:05:30.089Z,21.33
2018-05-01T17:07:59.541Z,21.27
2018-05-01T17:10:29.004Z,21.30
2018-05-01T17:12:58.785Z,21.25
2018-05-01T17:15:28.431Z,21.21
2018-05-01T17:17:58.889Z,21.17
2018-05-01T17:20:28.925Z,21.08
2018-05-01T17:22:59.130Z,21.13
2018-05-01T17:25:29.296Z,21.06
2018-05-01T17:27:59.110Z,21.10
2018-05-01T17:30:29.245Z,21.09
2018-05-01T17:32:58.766Z,21.00
2018-05-01T17:35:28.520Z,20.98
2018-05-01T17:37:58.247Z,20.98
2018-05-01T17:40:28.087Z,20.99
2018-05-01T17:42:58.217Z,20.87
2018-05-01T17:45:27.899Z,20.96
2018-05-01T17:47:57.328Z,20.95
2018-05-01T17:50:27.185Z,20.93
2018-05-01T17:52:56.680Z,20.92
2018-05-01T17:55:28.228Z,20.90
2018-05-01T17:57:58.077Z,20.89
2018-05-01T18:00:27.618Z,20.87
2018-05-01T18:02:57.151Z,20.85
2018-05-01T18:05:26.965Z,20.82
2018-05-01T18:07:56.727Z,20.73
2018-05-01T18:10:27.781Z,20.77
2018-05-01T18:12:57.878Z,20.75
2018-05-01T18:15:28.214Z,20.67
2018-05-01T18:17:57.775Z,20.52
2018-05-01T18:20:27.689Z,20.63
2018-05-01T18:22:57.495Z,20.67
2018-05-01T18:25:26.988Z,20.60
2018-05-01T18:27:56.687Z,20.65
2018-05-01T18:30:26.256Z,20.63
2018-05-01T18:32:56.015Z,20.61
2018-05-01T18:35:25.995Z,20.51
2018-05-01T18:37:55.507Z,20.54
2018-05-01T18:40:26.052Z,20.53
2018-05-01T18:42:56.782Z,20.51
2018-05-01T18:45:26.704Z,20.48
2018-05-01T18:47:56.421Z,20.47
2018-05-01T18:50:30.180Z,20.45
2018-05-01T18:52:55.603Z,20.38
2018-05-01T18:55:26.235Z,20.42
2018-05-01T18:57:57.541Z,20.40
2018-05-01T19:00:27.374Z,20.38
2018-05-01T19:02:57.067Z,20.36
2018-05-01T19:05:28.163Z,20.34
2018-05-01T19:08:15.296Z,20.33
2018-05-01T19:10:45.212Z,20.32
2018-05-01T19:13:17.078Z,20.30
2018-05-01T19:15:46.935Z,20.28
2018-05-01T19:18:20.008Z,20.13
2018-05-01T19:20:50.124Z,20.25
2018-05-01T19:23:20.780Z,20.25
2018-05-01T19:25:50.366Z,20.24
2018-05-01T19:28:21.787Z,20.22
2018-05-01T19:30:51.523Z,20.17
2018-05-01T19:33:21.312Z,20.13
2018-05-01T19:35:51.156Z,20.19
2018-05-01T19:38:21.034Z,20.17
2018-05-01T19:40:51.883Z,20.15
2018-05-01T19:43:22.088Z,20.14
2018-05-01T19:45:51.549Z,20.08
2018-05-01T19:48:21.174Z,20.13
2018-05-01T19:50:50.961Z,20.12
2018-05-01T19:53:20.833Z,20.11
2018-05-01T19:55:50.682Z,20.08
2018-05-01T19:58:21.037Z,20.02
2018-05-01T20:00:51.672Z,20.05
2018-05-01T20:03:21.772Z,19.92
2018-05-01T20:05:51.811Z,20.05
2018-05-01T20:08:22.470Z,19.97
2018-05-01T20:10:52.358Z,20.02
2018-05-01T20:13:23.743Z,19.82
2018-05-01T20:15:53.442Z,20.00
2018-05-01T20:18:23.102Z,19.98
2018-05-01T20:20:52.978Z,19.97
2018-05-01T20:23:22.639Z,19.96
2018-05-01T20:25:52.603Z,19.88
2018-05-01T20:28:23.123Z,19.93
2018-05-01T20:30:52.658Z,19.92
2018-05-01T20:33:25.159Z,19.89
2018-05-01T20:35:55.074Z,19.89
2018-05-01T20:38:24.711Z,19.87
2018-05-01T20:40:54.382Z,19.85
2018-05-01T20:43:24.421Z,19.83
2018-05-01T20:45:53.947Z,19.85
2018-05-01T20:48:23.436Z,19.84
2018-05-01T20:50:53.668Z,19.85
2018-05-01T20:53:23.345Z,19.84
2018-05-01T20:55:52.997Z,19.85
2018-05-01T20:58:23.546Z,19.84
2018-05-01T21:00:53.572Z,19.81
2018-05-01T21:03:23.355Z,19.79
2018-05-01T21:05:53.226Z,19.78
2018-05-01T21:08:22.875Z,19.76
2018-05-01T21:10:52.753Z,19.50
2018-05-01T21:13:22.643Z,19.75
2018-05-01T21:15:53.664Z,19.74
2018-05-01T21:18:23.488Z,19.74
2018-05-01T21:20:53.811Z,19.73
2018-05-01T21:23:23.911Z,19.71
2018-05-01T21:25:53.569Z,19.69
2018-05-01T21:28:24.258Z,19.62
2018-05-01T21:30:55.061Z,19.67
2018-05-01T21:33:24.592Z,19.66
2018-05-01T21:35:54.438Z,19.65
2018-05-01T21:38:24.314Z,19.64
2018-05-01T21:40:54.216Z,19.61
2018-05-01T21:43:24.171Z,19.62
2018-05-01T21:45:53.985Z,19.60
2018-05-01T21:48:24.014Z,19.60
2018-05-01T21:50:54.050Z,19.58
2018-05-01T21:53:23.839Z,19.58
2018-05-01T21:55:53.636Z,19.58
2018-05-01T21:58:23.803Z,19.55
2018-05-01T22:00:53.935Z,19.44
2018-05-01T22:03:23.699Z,19.51
2018-05-01T22:05:56.131Z,19.51
2018-05-01T22:08:26.198Z,19.51
2018-05-01T22:10:57.871Z,19.36
2018-05-01T22:13:28.880Z,19.48
2018-05-01T22:15:58.539Z,19.39
2018-05-01T22:18:27.996Z,19.46
2018-05-01T22:20:57.590Z,19.32
2018-05-01T22:23:27.190Z,19.44
2018-05-01T22:25:58.128Z,19.45
2018-05-01T22:28:27.614Z,19.44
2018-05-01T22:30:58.960Z,19.42
2018-05-01T22:33:28.760Z,19.43
2018-05-01T22:35:59.281Z,19.42
2018-05-01T22:38:29.441Z,19.00
2018-05-01T22:40:59.071Z,19.37
2018-05-01T22:43:28.551Z,19.30
2018-05-01T22:45:57.979Z,19.31
2018-05-01T22:48:28.451Z,19.35
2018-05-01T22:50:58.364Z,19.33
2018-05-01T22:53:28.161Z,19.26
2018-05-01T22:55:58.279Z,19.32
2018-05-01T22:58:29.405Z,19.31
2018-05-01T23:00:59.193Z,19.28
2018-05-01T23:03:29.538Z,19.29
2018-05-01T23:05:59.228Z,19.28
2018-05-01T23:08:29.005Z,19.25
2018-05-01T23:10:58.936Z,19.27
2018-05-01T23:13:28.707Z,19.26
2018-05-01T23:15:58.171Z,19.26
2018-05-01T23:18:28.145Z,19.24
2018-05-01T23:20:57.786Z,19.24
2018-05-01T23:23:27.572Z,19.21
2018-05-01T23:25:57.177Z,19.20
2018-05-01T23:28:27.833Z,19.21
2018-05-01T23:30:57.535Z,19.21
2018-05-01T23:33:28.766Z,19.20
2018-05-01T23:35:58.977Z,19.20
2018-05-01T23:38:29.641Z,19.14
2018-05-01T23:41:00.035Z,19.18
2018-05-01T23:43:30.307Z,19.17
2018-05-01T23:46:00.081Z,19.17
2018-05-01T23:48:29.851Z,19.17
2018-05-01T23:51:00.168Z,19.17
2018-05-01T23:53:30.255Z,19.17
2018-05-01T23:56:00.384Z,19.16
2018-05-01T23:58:30.482Z,19.15
